createdAt,value
2023-03-02T00:00:15.300Z,100146.53
2023-03-02T00:02:43.359Z,100148.41
2023-03-02T00:05:14.381Z,100154.53
2023-03-02T00:07:43.569Z,100160.59
2023-03-02T00:10:12.178Z,100152.44
2023-03-02T00:12:39.863Z,100157.72
2023-03-02T00:15:08.681Z,100151.28
2023-03-02T00:17:37.159Z,100151.63
2023-03-02T00:20:11.991Z,100148.09
2023-03-02T00:22:40.526Z,100154.00
2023-03-02T00:25:10.989Z,100147.50
2023-03-02T00:27:38.796Z,100105.75
2023-03-02T00:30:08.720Z,100148.41
2023-03-02T00:32:36.527Z,100143.97
2023-03-02T00:35:05.065Z,100152.44
2023-03-02T00:37:32.866Z,100151.63
2023-03-02T00:40:00.511Z,100145.25
2023-03-02T00:42:29.513Z,100146.69
2023-03-02T00:44:59.158Z,100144.94
2023-03-02T00:47:26.737Z,100140.63
2023-03-02T00:49:54.330Z,100145.59
2023-03-02T00:52:22.552Z,100140.84
2023-03-02T00:54:50.226Z,100140.84
2023-03-02T00:57:18.167Z,100128.97
2023-03-02T00:59:47.392Z,100133.59
2023-03-02T01:02:44.723Z,100135.38
2023-03-02T01:05:17.062Z,100129.44
2023-03-02T01:07:44.889Z,100134.72
2023-03-02T01:10:13.491Z,100130.41
2023-03-02T01:12:42.810Z,100115.53
2023-03-02T01:15:12.798Z,100130.22
2023-03-02T01:17:42.841Z,100124.53
2023-03-02T01:20:11.966Z,100122.13
2023-03-02T01:22:39.757Z,100118.47
2023-03-02T01:25:08.464Z,100121.66
2023-03-02T01:27:36.540Z,100119.91
2023-03-02T01:30:05.224Z,100116.72
2023-03-02T01:32:34.270Z,100112.72
2023-03-02T01:35:02.008Z,100114.78
2023-03-02T01:37:29.704Z,100115.56
2023-03-02T01:39:57.444Z,100106.50
2023-03-02T01:42:25.092Z,100104.41
2023-03-02T01:44:57.043Z,100102.03
2023-03-02T01:47:27.959Z,100095.94
2023-03-02T01:50:06.926Z,100095.09
2023-03-02T01:52:39.501Z,100087.88
2023-03-02T01:55:11.932Z,100093.50
2023-03-02T01:57:44.493Z,100086.84
2023-03-02T02:00:15.248Z,100091.00
2023-03-02T02:02:43.359Z,100079.19
2023-03-02T02:05:16.855Z,100077.72
2023-03-02T02:07:45.350Z,100074.56
2023-03-02T02:10:14.560Z,100069.94
2023-03-02T02:12:42.521Z,100067.22
2023-03-02T02:15:11.212Z,100067.22
2023-03-02T02:17:39.342Z,100073.28
2023-03-02T02:20:21.681Z,100076.78
2023-03-02T02:22:58.347Z,100066.25
2023-03-02T02:25:44.691Z,100063.19
2023-03-02T02:28:19.021Z,100072.94
2023-03-02T02:30:48.574Z,100072.13
2023-03-02T02:33:20.748Z,100068.44
2023-03-02T02:35:50.174Z,100067.50
2023-03-02T02:38:20.666Z,100070.84
2023-03-02T02:40:52.579Z,100062.22
2023-03-02T02:43:29.590Z,100068.28
2023-03-02T02:45:59.349Z,100068.16
2023-03-02T02:48:31.084Z,100066.22
2023-03-02T02:51:01.265Z,100067.34
2023-03-02T02:53:32.878Z,99994.22
2023-03-02T02:56:01.731Z,100061.44
2023-03-02T02:58:36.520Z,100066.78
2023-03-02T03:01:04.707Z,100066.00
2023-03-02T03:03:35.211Z,100060.25
2023-03-02T03:06:10.600Z,100065.41
2023-03-02T03:08:54.148Z,100066.84
2023-03-02T03:11:29.434Z,100060.59
2023-03-02T03:14:04.515Z,100052.78
2023-03-02T03:16:34.370Z,100053.06
2023-03-02T03:19:07.837Z,100055.44
2023-03-02T03:21:36.255Z,100057.84
2023-03-02T03:24:04.516Z,100057.56
2023-03-02T03:26:32.728Z,100049.94
2023-03-02T03:29:02.240Z,100055.22
2023-03-02T03:31:30.162Z,100056.03
2023-03-02T03:34:00.531Z,100051.22
2023-03-02T03:36:32.635Z,100050.44
2023-03-02T03:39:01.362Z,100049.16
2023-03-02T03:41:30.779Z,100060.19
2023-03-02T03:43:59.025Z,100056.16
2023-03-02T03:46:31.108Z,100054.25
2023-03-02T03:48:59.167Z,100054.25
2023-03-02T03:51:27.333Z,100063.19
2023-03-02T03:54:00.688Z,100057.09
2023-03-02T03:56:37.265Z,100049.44
2023-03-02T03:59:09.970Z,100053.09
2023-03-02T04:01:46.911Z,100058.22
2023-03-02T04:04:18.553Z,100060.94
2023-03-02T04:06:46.757Z,100050.19
2023-03-02T04:09:15.508Z,100052.44
2023-03-02T04:11:45.291Z,100048.75
2023-03-02T04:14:15.251Z,100055.91
2023-03-02T04:16:45.297Z,100067.38
2023-03-02T04:19:14.793Z,100066.72
2023-03-02T04:21:45.853Z,100061.38
2023-03-02T04:24:18.226Z,100057.63
2023-03-02T04:26:47.550Z,100068.53
2023-03-02T04:29:15.846Z,100066.44
2023-03-02T04:31:45.155Z,100002.94
2023-03-02T04:34:14.034Z,100064.81
2023-03-02T04:36:44.816Z,100070.03
2023-03-02T04:39:16.590Z,100067.19
2023-03-02T04:41:48.718Z,100024.66
2023-03-02T04:44:17.644Z,100076.69
2023-03-02T04:46:47.721Z,100085.34
2023-03-02T04:49:17.529Z,100081.00
2023-03-02T04:51:48.197Z,100083.53
2023-03-02T04:54:19.143Z,100077.13
2023-03-02T04:56:48.413Z,100074.78
2023-03-02T04:59:16.116Z,100066.47
2023-03-02T05:01:44.865Z,100075.53
2023-03-02T05:04:14.425Z,100069.06
2023-03-02T05:06:42.163Z,100077.97
2023-03-02T05:09:09.935Z,100072.81
2023-03-02T05:11:37.767Z,100058.91
2023-03-02T05:14:07.684Z,100065.19
2023-03-02T05:16:37.681Z,100058.72
2023-03-02T05:19:07.658Z,100063.53
2023-03-02T05:21:36.823Z,100051.53
2023-03-02T05:24:05.015Z,100060.84
2023-03-02T05:26:33.287Z,100049.28
2023-03-02T05:29:01.234Z,100053.81
2023-03-02T05:31:31.779Z,100050.53
2023-03-02T05:33:59.459Z,100047.44
2023-03-02T05:36:27.248Z,100047.59
2023-03-02T05:38:56.244Z,100050.47
2023-03-02T05:41:23.924Z,100051.41
2023-03-02T05:43:51.893Z,100046.19
2023-03-02T05:46:21.893Z,100044.50
2023-03-02T05:48:50.112Z,100046.88
2023-03-02T05:51:17.798Z,100056.91
2023-03-02T05:53:45.521Z,100046.69
2023-03-02T05:56:14.578Z,100045.22
2023-03-02T05:58:42.249Z,100043.84
2023-03-02T06:01:15.148Z,100050.41
2023-03-02T06:03:43.274Z,100047.22
2023-03-02T06:06:13.821Z,100042.44
2023-03-02T06:08:41.987Z,100040.22
2023-03-02T06:11:10.144Z,100048.66
2023-03-02T06:13:39.664Z,100044.38
2023-03-02T06:16:08.068Z,100044.53
2023-03-02T06:18:36.462Z,100040.38
2023-03-02T06:21:05.283Z,100055.22
2023-03-02T06:23:33.375Z,99997.41
2023-03-02T06:26:01.284Z,100053.97
2023-03-02T06:28:29.015Z,100053.78
2023-03-02T06:31:00.314Z,100059.50
2023-03-02T06:33:27.967Z,100060.19
2023-03-02T06:35:55.823Z,100062.75
2023-03-02T06:38:24.261Z,100069.75
2023-03-02T06:40:52.214Z,100071.03
2023-03-02T06:43:19.874Z,100060.47
2023-03-02T06:45:47.619Z,100069.44
2023-03-02T06:48:16.686Z,100073.44
2023-03-02T06:50:44.386Z,100071.03
2023-03-02T06:53:12.070Z,100070.22
2023-03-02T06:55:39.895Z,100071.34
2023-03-02T06:58:07.836Z,100076.59
2023-03-02T07:00:35.424Z,100079.97
2023-03-02T07:03:03.495Z,100096.25
2023-03-02T07:05:33.037Z,100087.78
2023-03-02T07:08:01.976Z,100096.41
2023-03-02T07:10:30.018Z,100087.69
2023-03-02T07:12:57.735Z,100087.13
2023-03-02T07:15:25.613Z,100092.97
2023-03-02T07:17:53.913Z,100100.91
2023-03-02T07:20:21.762Z,100088.97
2023-03-02T07:22:50.834Z,100094.03
2023-03-02T07:25:18.703Z,100106.91
2023-03-02T07:27:46.350Z,100107.09
2023-03-02T07:30:15.646Z,100103.13
2023-03-02T07:32:43.447Z,100093.03
2023-03-02T07:35:11.227Z,100092.88
2023-03-02T07:37:38.878Z,100102.72
2023-03-02T07:40:09.857Z,100103.31
2023-03-02T07:42:37.524Z,100093.56
2023-03-02T07:45:07.603Z,100035.25
2023-03-02T07:47:35.258Z,100107.38
2023-03-02T07:50:03.122Z,100104.50
2023-03-02T07:52:31.532Z,100103.78
2023-03-02T07:54:59.166Z,100119.81
2023-03-02T07:57:28.764Z,100104.13
2023-03-02T07:59:56.400Z,100106.19
2023-03-02T08:02:25.399Z,100106.84
2023-03-02T08:04:53.250Z,100102.72
2023-03-02T08:07:20.936Z,100110.63
2023-03-02T08:09:48.720Z,100100.22
2023-03-02T08:12:16.447Z,100103.78
2023-03-02T08:14:45.508Z,100038.84
2023-03-02T08:17:13.121Z,100107.88
2023-03-02T08:19:40.784Z,100105.44
2023-03-02T08:22:08.505Z,100104.44
2023-03-02T08:24:36.149Z,100109.31
2023-03-02T08:27:04.812Z,100099.44
2023-03-02T08:29:32.567Z,100101.72
2023-03-02T08:32:02.046Z,100097.19
2023-03-02T08:34:29.803Z,100106.94
2023-03-02T08:36:57.449Z,100106.50
2023-03-02T08:39:25.322Z,100103.09
2023-03-02T08:41:53.882Z,100103.88
2023-03-02T08:44:22.131Z,100105.16
2023-03-02T08:46:50.004Z,100080.78
2023-03-02T08:49:20.669Z,100086.91
2023-03-02T08:51:53.230Z,100075.91
2023-03-02T08:54:21.759Z,100094.97
2023-03-02T08:56:50.149Z,100085.28
2023-03-02T08:59:18.229Z,100094.22
2023-03-02T09:01:46.212Z,100082.81
2023-03-02T09:04:14.230Z,100091.25
2023-03-02T09:06:45.313Z,100088.34
2023-03-02T09:09:14.667Z,100096.00
2023-03-02T09:11:43.542Z,100091.22
2023-03-02T09:14:11.672Z,100100.06
2023-03-02T09:16:39.762Z,100085.41
2023-03-02T09:19:07.990Z,100099.25
2023-03-02T09:21:35.819Z,100087.09
2023-03-02T09:24:05.442Z,100089.81
2023-03-02T09:26:33.982Z,100084.84
2023-03-02T09:29:01.729Z,100057.50
2023-03-02T09:31:30.485Z,100087.03
2023-03-02T09:33:58.448Z,100081.13
2023-03-02T09:36:27.720Z,100084.09
2023-03-02T09:38:55.909Z,100092.66
2023-03-02T09:41:42.515Z,100095.59
2023-03-02T09:44:30.594Z,100103.03
2023-03-02T09:47:04.476Z,100086.19
2023-03-02T09:49:47.343Z,100085.03
2023-03-02T09:52:31.027Z,100087.75
2023-03-02T09:55:02.451Z,100099.22
2023-03-02T09:57:34.545Z,100087.84
2023-03-02T10:00:18.055Z,100034.56
2023-03-02T10:02:49.745Z,100098.22
2023-03-02T10:05:21.197Z,100085.94
2023-03-02T10:07:49.072Z,100086.09
2023-03-02T10:10:26.556Z,100087.31
2023-03-02T10:13:10.173Z,100097.19
2023-03-02T10:15:42.158Z,100092.88
2023-03-02T10:18:20.984Z,100089.16
2023-03-02T10:20:55.798Z,100089.94
2023-03-02T10:23:45.400Z,100088.47
2023-03-02T10:26:30.321Z,100090.09
2023-03-02T10:29:05.605Z,100083.47
2023-03-02T10:31:34.654Z,100076.78
2023-03-02T10:34:02.331Z,100076.88
2023-03-02T10:36:31.819Z,100077.16
2023-03-02T10:39:01.329Z,100056.19
2023-03-02T10:41:33.091Z,100072.06
2023-03-02T10:44:05.578Z,100065.16
2023-03-02T10:46:41.136Z,100072.25
2023-03-02T10:49:26.082Z,100065.41
2023-03-02T10:52:01.958Z,100068.19
2023-03-02T10:54:30.525Z,100061.16
2023-03-02T10:57:00.991Z,100053.13
2023-03-02T10:59:43.838Z,100061.25
2023-03-02T11:02:23.087Z,100050.75
2023-03-02T11:04:57.445Z,100046.78
2023-03-02T11:07:27.147Z,100045.91
2023-03-02T11:10:03.467Z,100036.72
2023-03-02T11:12:32.568Z,100038.53
2023-03-02T11:15:17.501Z,100040.88
2023-03-02T11:17:47.207Z,100029.06
2023-03-02T11:20:18.777Z,100032.03
2023-03-02T11:22:54.573Z,100027.19
2023-03-02T11:25:29.340Z,100038.22
2023-03-02T11:28:03.399Z,100022.66
2023-03-02T11:30:37.256Z,100017.72
2023-03-02T11:33:13.062Z,100015.97
2023-03-02T11:35:48.730Z,100018.75
2023-03-02T11:38:22.355Z,100032.41
2023-03-02T11:40:54.604Z,100028.41
2023-03-02T11:43:22.386Z,100024.00
2023-03-02T11:45:58.581Z,100012.28
2023-03-02T11:48:30.657Z,100008.75
2023-03-02T11:51:00.866Z,100015.72
2023-03-02T11:53:34.629Z,100007.69
2023-03-02T11:56:02.868Z,100003.78
2023-03-02T11:58:31.041Z,100001.38
2023-03-02T12:01:02.085Z,100002.72
2023-03-02T12:03:44.845Z,99998.41
2023-03-02T12:06:35.435Z,99992.31
2023-03-02T12:09:30.756Z,99989.84
2023-03-02T12:12:01.419Z,99988.72
2023-03-02T12:14:38.179Z,99984.00
2023-03-02T12:17:20.775Z,99980.44
2023-03-02T12:19:50.741Z,99984.41
2023-03-02T12:22:28.835Z,99978.91
2023-03-02T12:25:07.403Z,99977.22
2023-03-02T12:27:38.031Z,99984.34
2023-03-02T12:30:28.230Z,99977.72
2023-03-02T12:33:17.705Z,99982.47
2023-03-02T12:35:46.492Z,99969.03
2023-03-02T12:38:30.787Z,99972.53
2023-03-02T12:41:17.393Z,99971.38
2023-03-02T12:43:56.718Z,99977.75
2023-03-02T12:46:30.477Z,99963.16
2023-03-02T12:49:13.211Z,99950.13
2023-03-02T12:51:55.636Z,99967.06
2023-03-02T12:54:25.031Z,99959.59
2023-03-02T12:57:06.223Z,99965.94
2023-03-02T12:59:34.141Z,99951.34
2023-03-02T13:02:06.870Z,99958.72
2023-03-02T13:04:35.828Z,99945.00
2023-03-02T13:07:03.585Z,99943.44
2023-03-02T13:09:32.199Z,99941.09
2023-03-02T13:11:59.940Z,99938.69
2023-03-02T13:14:29.420Z,99942.25
2023-03-02T13:16:59.135Z,99942.66
2023-03-02T13:19:30.518Z,99941.88
2023-03-02T13:22:00.749Z,99935.53
2023-03-02T13:24:34.070Z,99933.59
2023-03-02T13:27:06.707Z,99930.03
2023-03-02T13:29:35.391Z,99920.94
2023-03-02T13:32:17.731Z,99931.59
2023-03-02T13:34:50.900Z,99917.41
2023-03-02T13:37:34.920Z,99915.81
2023-03-02T13:40:05.068Z,99912.63
2023-03-02T13:42:37.151Z,99893.31
2023-03-02T13:45:27.216Z,99919.34
2023-03-02T13:47:56.688Z,99917.31
2023-03-02T13:50:26.538Z,99908.19
2023-03-02T13:52:57.368Z,99883.84
2023-03-02T13:55:25.771Z,99912.91
2023-03-02T13:57:55.385Z,99905.78
2023-03-02T14:00:27.712Z,99895.59
2023-03-02T14:02:55.523Z,99904.28
2023-03-02T14:05:26.689Z,99896.38
2023-03-02T14:07:55.809Z,99902.72
2023-03-02T14:10:23.563Z,99905.59
2023-03-02T14:12:57.031Z,99893.72
2023-03-02T14:15:25.755Z,99896.06
2023-03-02T14:17:53.626Z,99905.06
2023-03-02T14:20:21.738Z,99899.94
2023-03-02T14:22:50.499Z,99894.06
2023-03-02T14:25:20.456Z,99894.00
2023-03-02T14:27:48.129Z,99893.66
2023-03-02T14:30:18.775Z,99891.56
2023-03-02T14:32:47.143Z,99894.78
2023-03-02T14:35:16.784Z,99899.59
2023-03-02T14:37:46.516Z,99895.66
2023-03-02T14:40:22.760Z,99899.88
2023-03-02T14:42:51.728Z,99891.59
2023-03-02T14:45:19.562Z,99892.47
2023-03-02T14:47:47.310Z,99888.47
2023-03-02T14:50:16.382Z,99887.34
2023-03-02T14:52:49.018Z,99887.75
2023-03-02T14:55:28.602Z,99882.66
2023-03-02T14:57:58.985Z,99888.19
2023-03-02T15:00:27.427Z,99882.28
2023-03-02T15:02:55.382Z,99880.69
2023-03-02T15:05:23.262Z,99857.38
2023-03-02T15:07:53.572Z,99873.56
2023-03-02T15:10:23.205Z,99877.13
2023-03-02T15:12:52.570Z,99858.97
2023-03-02T15:15:20.328Z,99890.19
2023-03-02T15:17:48.167Z,99882.69
2023-03-02T15:20:16.998Z,99886.63
2023-03-02T15:22:44.969Z,99887.00
2023-03-02T15:25:12.618Z,99891.75
2023-03-02T15:27:41.443Z,99887.81
2023-03-02T15:30:12.327Z,99891.38
2023-03-02T15:32:40.605Z,99894.13
2023-03-02T15:35:09.282Z,99874.41
2023-03-02T15:37:36.996Z,99898.06
2023-03-02T15:40:05.237Z,99894.94
2023-03-02T15:42:33.180Z,99893.34
2023-03-02T15:45:00.904Z,99896.13
2023-03-02T15:47:29.935Z,99896.09
2023-03-02T15:49:57.614Z,99898.47
2023-03-02T15:52:25.418Z,99894.13
2023-03-02T15:54:53.146Z,99894.94
2023-03-02T15:57:20.791Z,99895.31
2023-03-02T15:59:48.468Z,99892.97
2023-03-02T16:02:16.197Z,99897.69
2023-03-02T16:04:45.253Z,99898.06
2023-03-02T16:07:12.997Z,99907.47
2023-03-02T16:09:40.855Z,99906.72
2023-03-02T16:12:08.560Z,99902.75
2023-03-02T16:14:36.191Z,99905.50
2023-03-02T16:17:03.861Z,99904.31
2023-03-02T16:19:32.220Z,99903.50
2023-03-02T16:22:01.168Z,99905.06
2023-03-02T16:24:29.440Z,99914.41
2023-03-02T16:26:57.102Z,99908.47
2023-03-02T16:29:25.114Z,99912.13
2023-03-02T16:31:53.067Z,99913.97
2023-03-02T16:34:20.937Z,99914.78
2023-03-02T16:36:48.624Z,99908.75
2023-03-02T16:39:17.629Z,99912.63
2023-03-02T16:41:46.091Z,99914.84
2023-03-02T16:44:14.502Z,99880.34
2023-03-02T16:46:43.656Z,99916.94
2023-03-02T16:49:11.816Z,99932.44
2023-03-02T16:51:40.404Z,99931.47
2023-03-02T16:54:08.111Z,99934.34
2023-03-02T16:56:37.133Z,99932.53
2023-03-02T16:59:04.810Z,99941.72
2023-03-02T17:01:32.535Z,99940.19
2023-03-02T17:04:00.520Z,99937.91
2023-03-02T17:06:28.336Z,99944.94
2023-03-02T17:08:56.051Z,99947.31
2023-03-02T17:11:23.973Z,99942.16
2023-03-02T17:13:53.052Z,99951.19
2023-03-02T17:16:20.751Z,99953.56
2023-03-02T17:18:48.513Z,99966.06
2023-03-02T17:21:17.946Z,99964.09
2023-03-02T17:23:47.897Z,99965.56
2023-03-02T17:26:16.016Z,99941.00
2023-03-02T17:28:43.705Z,99973.13
2023-03-02T17:31:13.047Z,99974.56
2023-03-02T17:33:40.960Z,99972.34
2023-03-02T17:36:12.005Z,99971.03
2023-03-02T17:38:40.370Z,99984.88
2023-03-02T17:41:09.495Z,99989.03
2023-03-02T17:43:42.148Z,99989.19
2023-03-02T17:46:14.524Z,99991.66
2023-03-02T17:48:43.249Z,99991.44
2023-03-02T17:51:11.697Z,99997.19
2023-03-02T17:53:39.653Z,100000.97
2023-03-02T17:56:07.642Z,99999.63
2023-03-02T17:58:44.745Z,100002.38
2023-03-02T18:01:15.639Z,100002.69
2023-03-02T18:03:44.904Z,100007.16
2023-03-02T18:06:13.154Z,100003.28
2023-03-02T18:08:41.009Z,100011.56
2023-03-02T18:11:08.704Z,100015.25
2023-03-02T18:13:36.620Z,99991.38
2023-03-02T18:16:04.553Z,100019.59
2023-03-02T18:18:33.830Z,100016.56
2023-03-02T18:21:01.941Z,100019.34
2023-03-02T18:23:30.587Z,100019.91
2023-03-02T18:25:58.345Z,100024.41
2023-03-02T18:28:26.730Z,100021.97
2023-03-02T18:30:54.446Z,100030.31
2023-03-02T18:33:22.282Z,100029.16
2023-03-02T18:35:51.289Z,100023.38
2023-03-02T18:38:19.031Z,100031.13
2023-03-02T18:40:46.843Z,100031.94
2023-03-02T18:43:14.511Z,100035.88
2023-03-02T18:45:42.259Z,100038.28
2023-03-02T18:48:10.000Z,100028.28
2023-03-02T18:50:39.529Z,100036.44
2023-03-02T18:53:09.614Z,100036.78
2023-03-02T18:55:38.050Z,100038.56
2023-03-02T18:58:07.008Z,100029.06
2023-03-02T19:00:35.023Z,100040.41
2023-03-02T19:03:02.759Z,100038.06
2023-03-02T19:05:30.604Z,100049.50
2023-03-02T19:07:58.953Z,100048.81
2023-03-02T19:10:27.947Z,100060.50
2023-03-02T19:12:55.955Z,100055.38
2023-03-02T19:15:24.855Z,100060.09
2023-03-02T19:17:53.010Z,100057.97
2023-03-02T19:20:22.027Z,100060.50
2023-03-02T19:22:49.972Z,100061.97
2023-03-02T19:25:17.739Z,100052.31
2023-03-02T19:27:46.740Z,100062.66
2023-03-02T19:30:19.063Z,100047.03
2023-03-02T19:32:46.793Z,100052.59
2023-03-02T19:35:17.843Z,100052.28
2023-03-02T19:37:46.221Z,100058.50
2023-03-02T19:40:17.236Z,100055.09
2023-03-02T19:42:47.755Z,100054.13
2023-03-02T19:45:19.446Z,100059.59
2023-03-02T19:47:47.338Z,100057.22
2023-03-02T19:50:17.007Z,100061.47
2023-03-02T19:52:44.798Z,100059.41
2023-03-02T19:55:15.216Z,100060.66
2023-03-02T19:57:43.241Z,100068.75
2023-03-02T20:00:16.647Z,100066.47
2023-03-02T20:02:45.098Z,100050.66
2023-03-02T20:05:12.834Z,100068.53
2023-03-02T20:07:41.857Z,100064.22
2023-03-02T20:10:11.375Z,100069.34
2023-03-02T20:12:39.056Z,100068.19
2023-03-02T20:15:07.979Z,100080.13
2023-03-02T20:17:37.032Z,100084.78
2023-03-02T20:20:05.652Z,100077.16
2023-03-02T20:22:33.283Z,100078.16
2023-03-02T20:25:00.890Z,100080.78
2023-03-02T20:27:28.680Z,100083.88
2023-03-02T20:29:56.452Z,100081.50
2023-03-02T20:32:24.626Z,100084.09
2023-03-02T20:34:53.715Z,100085.25
2023-03-02T20:37:26.026Z,100090.94
2023-03-02T20:39:54.678Z,100088.78
2023-03-02T20:42:22.385Z,100088.41
2023-03-02T20:44:50.227Z,100098.66
2023-03-02T20:47:18.003Z,100101.97
2023-03-02T20:49:45.832Z,100101.72
2023-03-02T20:52:14.933Z,100106.59
2023-03-02T20:54:43.831Z,100105.75
2023-03-02T20:57:15.990Z,100102.84
2023-03-02T20:59:45.754Z,100097.44
2023-03-02T21:02:14.330Z,100111.69
2023-03-02T21:04:43.340Z,100102.13
2023-03-02T21:07:11.689Z,100104.94
2023-03-02T21:09:41.782Z,100104.84
2023-03-02T21:12:11.749Z,100108.59
2023-03-02T21:14:40.584Z,100107.72
2023-03-02T21:17:09.242Z,100111.47
2023-03-02T21:19:37.997Z,100106.22
2023-03-02T21:22:05.982Z,100113.28
2023-03-02T21:24:33.721Z,100115.06
2023-03-02T21:27:02.842Z,100119.31
2023-03-02T21:29:30.584Z,100113.25
2023-03-02T21:31:58.565Z,100120.81
2023-03-02T21:34:26.307Z,100121.59
2023-03-02T21:36:54.048Z,100128.44
2023-03-02T21:39:23.748Z,100119.38
2023-03-02T21:41:52.404Z,100127.66
2023-03-02T21:44:21.542Z,100122.78
2023-03-02T21:46:49.735Z,100121.16
2023-03-02T21:49:19.841Z,100124.53
2023-03-02T21:51:49.883Z,100120.53
2023-03-02T21:54:17.792Z,100126.94
2023-03-02T21:56:45.782Z,100124.06
2023-03-02T21:59:13.581Z,100124.53
2023-03-02T22:01:42.778Z,100122.47
2023-03-02T22:04:10.571Z,100128.34
2023-03-02T22:06:38.503Z,100131.69
2023-03-02T22:09:06.231Z,100132.22
2023-03-02T22:11:36.138Z,100133.81
2023-03-02T22:14:11.948Z,100130.44
2023-03-02T22:16:43.101Z,100124.38
2023-03-02T22:19:24.306Z,100100.09
2023-03-02T22:21:53.217Z,100118.66
2023-03-02T22:24:24.416Z,100117.81
2023-03-02T22:26:59.084Z,100123.25
2023-03-02T22:29:29.519Z,100117.03
2023-03-02T22:32:07.194Z,100127.72
2023-03-02T22:34:44.206Z,100116.22
2023-03-02T22:37:14.347Z,100115.91
2023-03-02T22:39:42.544Z,100130.13
2023-03-02T22:42:14.997Z,100121.97
2023-03-02T22:44:42.834Z,100122.59
2023-03-02T22:47:16.488Z,100122.78
2023-03-02T22:49:44.436Z,100131.72
2023-03-02T22:52:18.273Z,100113.97
2023-03-02T22:54:46.579Z,100126.09
2023-03-02T22:57:24.067Z,100136.34
2023-03-02T22:59:51.780Z,100143.19
2023-03-02T23:02:22.356Z,100135.03
2023-03-02T23:04:50.342Z,100138.69
2023-03-02T23:07:20.021Z,100138.38
2023-03-02T23:09:48.925Z,100134.88
2023-03-02T23:12:20.797Z,100147.63
2023-03-02T23:14:50.914Z,100151.31
2023-03-02T23:17:22.133Z,100150.19
2023-03-02T23:19:51.498Z,100145.84
2023-03-02T23:22:19.821Z,100143.78
2023-03-02T23:24:47.432Z,100136.59
2023-03-02T23:27:15.323Z,100142.03
2023-03-02T23:29:43.004Z,100144.38
2023-03-02T23:32:10.670Z,100138.97
2023-03-02T23:34:39.774Z,100124.91
2023-03-02T23:37:07.473Z,100140.88
2023-03-02T23:39:35.157Z,100148.50
2023-03-02T23:42:02.955Z,100153.28
2023-03-02T23:44:30.661Z,100151.66
2023-03-02T23:46:58.450Z,100155.03
2023-03-02T23:49:26.116Z,100148.19
2023-03-02T23:51:55.128Z,100140.31
2023-03-02T23:54:22.764Z,100142.81
2023-03-02T23:56:50.409Z,100157.63
2023-03-02T23:59:18.079Z,100155.72
